Time;durP1;ratioP1;P1;durP2;ratioP2;P2;SDS_P1;SDS_P2;PMS_P1;PMS_P2;Temp;Humidity;BMP_temperature;BMP_pressure;BME280_temperature;BME280_humidity;BME280_pressure;Samples;Min_cycle;Max_cycle;Signal;HPM_P1;HPM_P2
2022/09/08 00:02:49;;;;;;;11.30;4.60;;;;;13.90;97678.80;;;;111010;1250;41637;-62
2022/09/08 00:05:23;;;;;;;9.70;4.30;;;;;13.80;97679.40;;;;110974;1250;41937;-62
2022/09/08 00:07:55;;;;;;;8.40;3.40;;;;;13.80;97681.00;;;;111086;1249;41224;-62
2022/09/08 00:10:26;;;;;;;8.20;3.70;;;;;13.70;97677.80;;;;111018;1248;41707;-62
2022/09/08 00:12:55;;;;;;;;;;;;;13.70;97675.80;;;;111043;1250;41631;-62
2022/09/08 00:15:26;;;;;;;7.00;3.30;;;;;13.62;97674.00;;;;111007;1250;41136;-62
2022/09/08 00:17:56;;;;;;;6.90;3.00;;;;;13.64;97673.00;;;;111002;1250;42452;-62
2022/09/08 00:20:28;;;;;;;7.60;3.30;;;;;13.60;97677.00;;;;111096;1250;41456;-62
2022/09/08 00:22:58;;;;;;;10.00;3.90;;;;;13.60;97671.80;;;;111020;1249;41373;-62
2022/09/08 00:25:27;;;;;;;9.40;3.80;;;;;13.60;97667.40;;;;111024;1250;41250;-61
2022/09/08 00:27:58;;;;;;;;;;;;;13.60;97666.40;;;;110893;1250;41883;-61
2022/09/08 00:30:28;;;;;;;9.20;3.80;;;;;13.60;97675.20;;;;109631;1248;1814999;-61
2022/09/08 00:32:59;;;;;;;8.30;4.30;;;;;13.60;97675.60;;;;111098;1250;41257;-61
2022/09/08 00:35:29;;;;;;;10.10;4.20;;;;;13.60;97675.40;;;;111045;1251;41644;-60
2022/09/08 00:37:59;;;;;;;8.80;3.80;;;;;13.68;97670.60;;;;111076;1250;42253;-61
2022/09/08 00:40:29;;;;;;;9.30;3.50;;;;;13.70;97666.80;;;;111032;1250;41152;-62
2022/09/08 00:43:02;;;;;;;7.70;3.40;;;;;13.70;97663.80;;;;111047;1250;42469;-62
2022/09/08 00:45:36;;;;;;;6.70;3.10;;;;;13.70;97664.80;;;;111024;1249;41266;-61
2022/09/08 00:48:15;;;;;;;7.60;3.00;;;;;13.70;97662.00;;;;110899;1250;41605;-61
2022/09/08 00:50:45;;;;;;;7.10;3.40;;;;;13.70;97661.40;;;;110993;1250;41700;-61
2022/09/08 00:53:17;;;;;;;7.30;3.20;;;;;13.70;97669.20;;;;111053;1250;41152;-61
2022/09/08 00:55:47;;;;;;;6.90;2.80;;;;;13.70;97665.80;;;;111039;1248;41793;-62
2022/09/08 00:58:18;;;;;;;7.50;3.20;;;;;13.70;97666.80;;;;111134;1250;41257;-62
2022/09/08 01:00:49;;;;;;;7.90;3.70;;;;;13.68;97664.20;;;;111010;1250;41483;-61
2022/09/08 01:03:19;;;;;;;11.20;3.90;;;;;13.68;97669.00;;;;111106;1250;41256;-61
2022/09/08 01:05:57;;;;;;;7.60;3.40;;;;;13.70;97669.80;;;;111023;1250;41152;-61
2022/09/08 01:14:50;;;;;;;7.80;3.30;;;;;13.80;97665.00;;;;110992;1250;41141;-61
2022/09/08 01:17:23;;;;;;;7.10;3.00;;;;;13.80;97664.80;;;;111052;1248;41156;-61
2022/09/08 01:19:56;;;;;;;7.70;3.20;;;;;13.84;97658.80;;;;111026;1248;41149;-61
2022/09/08 01:23:00;;;;;;;7.90;3.80;;;;;13.90;97653.80;;;;111063;1250;41331;-61
2022/09/08 01:25:50;;;;;;;8.50;3.50;;;;;13.90;97655.20;;;;111092;1250;41505;-61
2022/09/08 01:28:29;;;;;;;8.70;4.20;;;;;13.92;97659.00;;;;111121;1249;41149;-60
2022/09/08 01:31:01;;;;;;;7.50;3.20;;;;;13.90;97656.60;;;;110951;1251;41117;-61
2022/09/08 01:33:31;;;;;;;8.40;3.50;;;;;13.90;97655.80;;;;110996;1250;41159;-62
2022/09/08 01:36:13;;;;;;;7.10;3.00;;;;;13.96;97656.80;;;;111043;1250;41143;-61
2022/09/08 01:38:44;;;;;;;8.30;3.70;;;;;14.00;97651.00;;;;111153;1248;41774;-62
2022/09/08 01:41:15;;;;;;;;;;;;;14.00;97652.00;;;;111044;1250;41139;-62
2022/09/08 01:43:46;;;;;;;6.60;2.90;;;;;13.98;97646.20;;;;111045;1248;41154;-61
2022/09/08 01:46:16;;;;;;;;;;;;;13.96;97645.00;;;;111146;1251;41283;-62
2022/09/08 01:48:46;;;;;;;9.10;3.80;;;;;14.00;97644.80;;;;111266;1248;41609;-61
2022/09/08 01:51:17;;;;;;;8.20;4.00;;;;;14.00;97644.40;;;;111055;1250;41950;-62
2022/09/08 01:53:49;;;;;;;6.90;3.20;;;;;14.00;97646.40;;;;111241;1248;41719;-61
2022/09/08 01:56:20;;;;;;;7.70;3.20;;;;;14.00;97644.40;;;;111047;1248;42816;-62
2022/09/08 01:58:52;;;;;;;11.00;4.50;;;;;14.00;97642.80;;;;111105;1250;41663;-61
2022/09/08 02:01:23;;;;;;;8.30;3.70;;;;;14.00;97641.40;;;;111265;1247;41532;-61
2022/09/08 02:03:53;;;;;;;13.90;5.00;;;;;14.00;97636.60;;;;110945;1249;41125;-61
2022/09/08 02:06:23;;;;;;;9.50;4.50;;;;;14.00;97637.80;;;;111126;1248;41148;-61
2022/09/08 02:08:55;;;;;;;11.90;4.60;;;;;14.10;97634.60;;;;111205;1247;41139;-61
2022/09/08 02:11:27;;;;;;;13.40;4.70;;;;;14.00;97632.00;;;;111016;1250;41132;-62
2022/09/08 02:13:58;;;;;;;9.60;4.10;;;;;14.00;97640.60;;;;111084;1248;41415;-62
2022/09/08 02:16:32;;;;;;;8.90;3.70;;;;;14.00;97643.40;;;;111118;1249;41150;-61
2022/09/08 02:19:02;;;;;;;8.90;3.10;;;;;14.00;97643.20;;;;111034;1248;41267;-61
2022/09/08 02:21:33;;;;;;;7.90;3.20;;;;;14.00;97644.60;;;;111026;1250;42425;-62
2022/09/08 02:24:04;;;;;;;8.80;3.20;;;;;14.00;97644.00;;;;110996;1250;41250;-62
2022/09/08 02:26:34;;;;;;;7.20;3.10;;;;;14.00;97638.60;;;;111104;1249;41276;-62
2022/09/08 02:29:08;;;;;;;5.60;2.60;;;;;14.00;97639.00;;;;111091;1250;41241;-62
2022/09/08 02:31:37;;;;;;;6.90;2.80;;;;;14.00;97639.20;;;;111075;1250;41322;-62
2022/09/08 02:34:08;;;;;;;6.90;3.20;;;;;14.00;97637.20;;;;111298;1247;41134;-62
2022/09/08 02:36:38;;;;;;;7.90;2.90;;;;;14.00;97636.80;;;;111110;1247;41801;-62
2022/09/08 02:39:15;;;;;;;10.80;3.60;;;;;14.00;97635.20;;;;111131;1250;41180;-61
2022/09/08 02:41:45;;;;;;;8.80;3.40;;;;;14.00;97636.40;;;;111039;1247;41736;-62
2022/09/08 02:44:14;;;;;;;7.50;3.50;;;;;14.00;97634.40;;;;111167;1248;41967;-62
2022/09/08 02:46:45;;;;;;;9.00;3.40;;;;;14.02;97629.80;;;;111133;1248;41272;-62
2022/09/08 02:49:15;;;;;;;10.60;3.80;;;;;14.02;97626.80;;;;111153;1248;41709;-62
2022/09/08 02:51:44;;;;;;;9.10;4.20;;;;;14.10;97625.00;;;;110995;1249;41261;-62
2022/09/08 02:54:14;;;;;;;9.20;4.50;;;;;14.02;97621.80;;;;111083;1247;42423;-61
2022/09/08 02:56:44;;;;;;;9.80;4.40;;;;;14.00;97622.20;;;;111058;1248;41169;-62
2022/09/08 02:59:14;;;;;;;9.00;4.20;;;;;14.00;97632.40;;;;111083;1248;41328;-62
2022/09/08 03:01:46;;;;;;;8.90;4.50;;;;;14.00;97631.00;;;;111350;1247;42399;-62
2022/09/08 03:04:16;;;;;;;8.80;4.10;;;;;13.92;97629.20;;;;111185;1249;41142;-63
2022/09/08 03:06:46;;;;;;;10.80;3.90;;;;;13.90;97630.80;;;;111149;1248;41672;-61
2022/09/08 03:09:16;;;;;;;9.20;4.00;;;;;13.90;97630.20;;;;111262;1248;41159;-62
2022/09/08 03:11:48;;;;;;;9.30;4.00;;;;;13.90;97628.80;;;;111098;1247;42286;-62
2022/09/08 03:14:18;;;;;;;8.50;3.40;;;;;13.80;97632.80;;;;111111;1247;41191;-62
2022/09/08 03:16:47;;;;;;;6.90;3.10;;;;;13.80;97630.60;;;;110923;1251;41170;-61
2022/09/08 03:19:17;;;;;;;8.30;3.30;;;;;13.78;97628.40;;;;111194;1248;41136;-61
2022/09/08 03:21:46;;;;;;;6.80;3.00;;;;;13.70;97628.20;;;;111025;1250;42476;-61
2022/09/08 03:24:17;;;;;;;8.00;3.60;;;;;13.70;97621.80;;;;111179;1248;41589;-62
2022/09/08 03:26:46;;;;;;;9.00;3.40;;;;;13.70;97618.60;;;;110824;1250;41260;-61
2022/09/08 03:29:16;;;;;;;7.50;3.10;;;;;13.62;97614.60;;;;111192;1247;41138;-61
2022/09/08 03:31:46;;;;;;;7.00;2.90;;;;;13.60;97621.80;;;;111102;1250;41613;-62
2022/09/08 03:34:17;;;;;;;6.90;2.90;;;;;13.60;97616.20;;;;111032;1248;41151;-61
2022/09/08 03:36:45;;;;;;;7.40;2.80;;;;;13.60;97618.60;;;;111161;1247;41521;-61
2022/09/08 03:39:16;;;;;;;8.20;3.70;;;;;13.52;97619.40;;;;111133;1247;41664;-61
2022/09/08 03:41:46;;;;;;;8.90;3.50;;;;;13.50;97616.80;;;;111103;1248;42222;-61
2022/09/08 03:44:16;;;;;;;8.40;3.50;;;;;13.50;97613.00;;;;111141;1247;41152;-61
2022/09/08 03:46:45;;;;;;;6.90;3.00;;;;;13.50;97612.00;;;;111126;1247;41258;-61
2022/09/08 03:49:15;;;;;;;8.10;3.10;;;;;13.44;97616.00;;;;111208;1247;41196;-61
2022/09/08 03:51:44;;;;;;;8.60;3.40;;;;;13.42;97616.80;;;;111061;1248;42027;-61
2022/09/08 03:57:02;;;;;;;8.20;3.80;;;;;13.42;97616.20;;;;111107;1248;41493;-61
2022/09/08 03:59:32;;;;;;;11.60;4.70;;;;;13.40;97613.00;;;;111249;1250;41246;-61
2022/09/08 04:02:01;;;;;;;10.70;4.40;;;;;13.40;97616.00;;;;111079;1248;41194;-61
2022/09/08 04:04:31;;;;;;;10.00;4.00;;;;;13.40;97616.40;;;;111039;1248;41718;-62
2022/09/08 04:07:01;;;;;;;11.60;4.10;;;;;13.40;97622.80;;;;111102;1248;42568;-61
2022/09/08 04:09:31;;;;;;;8.80;3.90;;;;;13.40;97626.80;;;;111254;1247;41143;-61
2022/09/08 04:12:01;;;;;;;7.10;3.30;;;;;13.42;97632.00;;;;110850;1247;41723;-61
2022/09/08 04:14:31;;;;;;;7.70;3.50;;;;;13.50;97635.20;;;;111045;1250;43106;-60
2022/09/08 04:17:01;;;;;;;8.00;3.40;;;;;13.50;97636.60;;;;111095;1248;42086;-61
2022/09/08 04:19:30;;;;;;;8.30;3.30;;;;;13.50;97634.80;;;;111009;1248;41434;-60
2022/09/08 04:21:59;;;;;;;9.30;3.20;;;;;13.60;97637.00;;;;111019;1248;41155;-61
2022/09/08 04:24:29;;;;;;;7.10;2.90;;;;;13.60;97631.60;;;;111006;1248;41587;-61
2022/09/08 04:26:59;;;;;;;6.60;3.00;;;;;13.62;97625.80;;;;111032;1250;41251;-62
2022/09/08 04:29:29;;;;;;;6.80;3.10;;;;;13.70;97629.80;;;;110999;1248;41308;-61
2022/09/08 04:31:58;;;;;;;6.40;2.80;;;;;13.70;97628.00;;;;111012;1251;41257;-61
2022/09/08 04:34:27;;;;;;;9.00;4.20;;;;;13.78;97637.00;;;;111023;1249;41139;-61
2022/09/08 04:36:56;;;;;;;9.10;3.90;;;;;13.80;97639.40;;;;110850;1249;41262;-61
2022/09/08 04:39:27;;;;;;;11.00;4.50;;;;;13.80;97632.60;;;;111072;1248;41133;-62
2022/09/08 04:41:56;;;;;;;9.30;3.80;;;;;13.80;97629.60;;;;110895;1251;41180;-62
2022/09/08 04:44:25;;;;;;;9.70;4.50;;;;;13.80;97627.00;;;;111022;1247;42064;-61
2022/09/08 04:46:54;;;;;;;10.40;3.80;;;;;13.80;97631.80;;;;111031;1248;42022;-61
2022/09/08 04:49:23;;;;;;;7.00;3.10;;;;;13.80;97631.20;;;;111021;1247;41139;-61
2022/09/08 04:51:53;;;;;;;16.20;5.00;;;;;13.90;97630.40;;;;111030;1248;41152;-62
2022/09/08 04:54:22;;;;;;;9.00;3.90;;;;;13.90;97625.60;;;;111021;1248;41281;-61
2022/09/08 04:56:52;;;;;;;7.90;3.10;;;;;14.10;97632.40;;;;111014;1248;41270;-61
2022/09/08 04:59:25;;;;;;;8.30;3.30;;;;;14.20;97631.40;;;;111108;1247;41577;-61
2022/09/08 05:01:54;;;;;;;8.00;3.30;;;;;14.30;97628.00;;;;111023;1247;41651;-60
2022/09/08 05:04:23;;;;;;;6.90;3.30;;;;;14.44;97628.20;;;;110773;1248;41951;-61
2022/09/08 05:06:53;;;;;;;7.80;3.20;;;;;14.70;97622.40;;;;110738;1250;41720;-62
2022/09/08 05:09:23;;;;;;;7.70;3.10;;;;;14.90;97629.60;;;;111028;1248;41589;-62
2022/09/08 05:11:53;;;;;;;7.10;2.90;;;;;15.00;97633.80;;;;111024;1248;41750;-62
2022/09/08 05:14:22;;;;;;;15.50;4.30;;;;;15.04;97635.20;;;;111119;1248;41621;-61
2022/09/08 05:16:51;;;;;;;8.90;4.50;;;;;15.02;97631.20;;;;111069;1247;41600;-62
2022/09/08 05:19:20;;;;;;;8.00;3.80;;;;;15.00;97622.00;;;;111067;1248;41148;-61
2022/09/08 05:21:50;;;;;;;8.50;4.10;;;;;15.40;97618.00;;;;111080;1250;41716;-62
2022/09/08 05:24:20;;;;;;;8.90;3.80;;;;;16.14;97604.20;;;;111043;1248;41536;-61
2022/09/08 05:26:50;;;;;;;11.10;4.30;;;;;17.26;97601.60;;;;110958;1250;41249;-61
2022/09/08 05:29:22;;;;;;;8.60;3.90;;;;;18.12;97596.80;;;;111034;1248;41624;-63
2022/09/08 05:31:53;;;;;;;9.20;3.80;;;;;19.08;97599.20;;;;111004;1248;41595;-62
2022/09/08 05:34:24;;;;;;;9.60;3.70;;;;;19.92;97599.80;;;;111134;1247;41615;-61
2022/09/08 05:37:02;;;;;;;11.20;3.40;;;;;20.60;97611.80;;;;111067;1248;41132;-62
2022/09/08 05:39:39;;;;;;;7.20;3.00;;;;;21.18;97597.40;;;;111065;1248;41145;-60
2022/09/08 05:42:22;;;;;;;6.50;3.00;;;;;21.90;97598.00;;;;111039;1248;41481;-61
2022/09/08 05:45:01;;;;;;;;;;;;;22.64;97597.00;;;;111095;1249;41162;-61
2022/09/08 05:47:40;;;;;;;6.80;2.70;;;;;23.40;97597.80;;;;111005;1248;41156;-62
2022/09/08 05:50:24;;;;;;;6.10;2.70;;;;;23.98;97610.20;;;;110952;1250;41248;-62
2022/09/08 05:52:59;;;;;;;7.40;2.90;;;;;24.56;97603.20;;;;110901;1250;41284;-62
2022/09/08 05:55:34;;;;;;;5.80;2.60;;;;;25.10;97599.20;;;;110735;1248;41169;-61
2022/09/08 05:58:13;;;;;;;6.50;2.50;;;;;25.50;97599.40;;;;111141;1247;41177;-62
2022/09/08 06:01:03;;;;;;;5.90;2.40;;;;;25.98;97594.40;;;;110984;1247;41457;-62
2022/09/08 06:03:42;;;;;;;5.50;2.40;;;;;26.40;97595.60;;;;110963;1247;41147;-63
2022/09/08 06:06:18;;;;;;;6.60;2.60;;;;;26.86;97599.00;;;;111034;1249;41147;-61
2022/09/08 06:09:00;;;;;;;5.40;2.40;;;;;27.32;97600.60;;;;110752;1250;41274;-62
2022/09/08 06:11:35;;;;;;;5.90;2.30;;;;;27.70;97594.40;;;;110726;1251;41767;-62
2022/09/08 06:14:18;;;;;;;6.00;2.40;;;;;28.02;97592.00;;;;110932;1249;41723;-62
2022/09/08 06:16:52;;;;;;;9.40;2.30;;;;;28.40;97596.00;;;;111125;1246;41152;-62
2022/09/08 06:19:22;;;;;;;5.10;2.50;;;;;28.70;97594.80;;;;111086;1248;41633;-62
2022/09/08 06:21:51;;;;;;;5.80;2.30;;;;;29.00;97601.00;;;;110956;1250;41171;-62
2022/09/08 06:24:20;;;;;;;5.40;2.20;;;;;29.26;97603.80;;;;110765;1249;41157;-63
2022/09/08 06:26:58;;;;;;;6.20;2.50;;;;;29.24;97602.00;;;;110763;1250;41150;-62
2022/09/08 06:29:54;;;;;;;6.00;2.30;;;;;28.70;97602.20;;;;111105;1247;41150;-65
2022/09/08 06:32:32;;;;;;;5.80;2.20;;;;;28.60;97609.60;;;;111112;1247;41144;-62
2022/09/08 06:35:07;;;;;;;4.90;2.10;;;;;28.90;97610.20;;;;110638;1250;41263;-62
2022/09/08 06:37:52;;;;;;;5.70;2.20;;;;;29.20;97611.40;;;;111024;1248;41130;-62
2022/09/08 06:40:28;;;;;;;5.20;2.30;;;;;29.58;97609.40;;;;111107;1248;41155;-63
2022/09/08 06:43:12;;;;;;;9.50;2.90;;;;;29.50;97608.80;;;;111036;1248;41262;-63
2022/09/08 06:45:49;;;;;;;6.40;2.00;;;;;29.06;97603.40;;;;111056;1247;41673;-63
2022/09/08 06:48:31;;;;;;;6.80;2.30;;;;;29.26;97608.00;;;;110915;1248;41147;-63
2022/09/08 06:51:08;;;;;;;7.20;2.80;;;;;29.16;97603.20;;;;111034;1248;40736;-63
2022/09/08 06:53:50;;;;;;;6.20;2.30;;;;;29.50;97609.60;;;;111098;1248;41204;-62
2022/09/08 06:56:38;;;;;;;8.60;2.70;;;;;29.80;97609.00;;;;111067;1250;41153;-64
2022/09/08 06:59:44;;;;;;;5.50;2.20;;;;;29.66;97606.00;;;;111072;1247;41141;-64
2022/09/08 07:02:40;;;;;;;5.90;2.40;;;;;30.00;97609.20;;;;111072;1247;42042;-64
2022/09/08 07:05:29;;;;;;;6.50;2.50;;;;;30.36;97603.60;;;;111037;1247;41263;-63
2022/09/08 07:08:34;;;;;;;7.80;2.20;;;;;30.16;97605.20;;;;111086;1248;41243;-63
2022/09/08 07:11:30;;;;;;;5.00;2.00;;;;;30.54;97607.20;;;;111127;1250;41145;-64
2022/09/08 07:14:51;;;;;;;6.70;2.60;;;;;30.46;97608.20;;;;111114;1247;41120;-64
2022/09/08 07:17:34;;;;;;;12.30;2.50;;;;;30.68;97614.20;;;;110951;1247;41169;-64
2022/09/08 07:20:09;;;;;;;5.30;2.30;;;;;31.10;97613.60;;;;111266;1248;41151;-64
2022/09/08 07:23:07;;;;;;;6.30;2.40;;;;;31.36;97613.00;;;;111122;1248;41774;-64
2022/09/08 07:25:59;;;;;;;5.50;2.10;;;;;31.02;97612.80;;;;111209;1248;41285;-64
2022/09/08 07:28:33;;;;;;;5.10;2.00;;;;;31.32;97619.20;;;;111201;1247;41617;-64
2022/09/08 07:31:04;;;;;;;6.10;2.30;;;;;31.90;97620.60;;;;111054;1248;41262;-64
2022/09/08 07:33:42;;;;;;;4.80;2.00;;;;;32.38;97625.20;;;;111075;1247;41601;-64
2022/09/08 07:36:38;;;;;;;5.80;2.10;;;;;32.80;97624.40;;;;111125;1247;41151;-64
2022/09/08 07:39:14;;;;;;;;;;;;;33.20;97625.60;;;;111343;1248;42530;-64
2022/09/08 07:41:53;;;;;;;6.80;2.10;;;;;33.60;97626.80;;;;111380;1249;41200;-65
2022/09/08 07:44:26;;;;;;;5.10;1.90;;;;;33.90;97629.00;;;;111452;1247;41166;-64
2022/09/08 07:47:30;;;;;;;5.20;2.10;;;;;34.10;97630.20;;;;111263;1247;41023;-64
2022/09/08 07:50:09;;;;;;;4.50;2.10;;;;;34.50;97633.00;;;;111252;1247;42610;-64
2022/09/08 07:53:16;;;;;;;5.30;2.30;;;;;34.80;97633.80;;;;111013;1248;42063;-63
2022/09/08 07:55:45;;;;;;;4.60;2.10;;;;;34.70;97639.40;;;;111113;1248;41157;-63
2022/09/08 07:58:19;;;;;;;6.90;2.30;;;;;34.54;97637.60;;;;111155;1248;41152;-64
2022/09/08 08:00:59;;;;;;;6.40;2.40;;;;;33.28;97639.20;;;;111216;1247;41630;-64
2022/09/08 08:04:14;;;;;;;5.70;2.00;;;;;33.00;97646.20;;;;111234;1247;41633;-64
2022/09/08 08:06:47;;;;;;;4.30;2.10;;;;;33.00;97648.40;;;;111132;1247;41373;-64
2022/09/08 08:09:25;;;;;;;6.70;2.40;;;;;32.74;97653.00;;;;111194;1250;41152;-64
2022/09/08 08:12:16;;;;;;;7.60;2.10;;;;;31.84;97650.80;;;;111237;1247;42395;-64
2022/09/08 08:15:11;;;;;;;9.70;3.00;;;;;30.80;97653.40;;;;111137;1250;42384;-64
2022/09/08 08:17:49;;;;;;;6.10;2.50;;;;;30.08;97650.20;;;;111132;1248;41613;-64
2022/09/08 08:20:36;;;;;;;6.30;2.60;;;;;29.48;97650.80;;;;111020;1247;41260;-64
2022/09/08 08:23:18;;;;;;;6.20;2.70;;;;;29.54;97645.20;;;;111027;1247;41796;-63
2022/09/08 08:25:58;;;;;;;6.60;2.50;;;;;30.08;97643.60;;;;111044;1247;42505;-64
2022/09/08 08:28:39;;;;;;;7.00;2.50;;;;;31.02;97627.40;;;;110985;1248;41264;-64
2022/09/08 08:31:15;;;;;;;7.30;2.60;;;;;31.92;97619.40;;;;111032;1247;41246;-64
2022/09/08 08:33:48;;;;;;;5.60;2.40;;;;;32.10;97617.40;;;;111039;1248;41717;-63
2022/09/08 08:36:22;;;;;;;6.00;2.40;;;;;32.94;97616.00;;;;111038;1247;41261;-64
2022/09/08 08:39:06;;;;;;;5.80;2.30;;;;;34.00;97611.80;;;;111011;1250;41144;-64
2022/09/08 08:42:12;;;;;;;8.20;3.10;;;;;35.14;97607.00;;;;111052;1250;41325;-64
2022/09/08 08:45:23;;;;;;;7.20;2.40;;;;;35.60;97607.40;;;;110764;1250;41727;-64
2022/09/08 08:48:04;;;;;;;6.00;2.40;;;;;34.94;97601.80;;;;111063;1248;41679;-64
2022/09/08 08:50:48;;;;;;;5.30;2.10;;;;;34.80;97601.20;;;;111023;1248;41252;-64
2022/09/08 08:53:27;;;;;;;6.10;2.40;;;;;35.28;97593.00;;;;111057;1248;41128;-64
2022/09/08 08:56:27;;;;;;;5.30;2.20;;;;;35.70;97594.40;;;;111002;1248;42402;-64
2022/09/08 08:59:10;;;;;;;6.40;2.70;;;;;35.72;97584.60;;;;111041;1248;41261;-64
2022/09/08 09:01:45;;;;;;;6.50;2.50;;;;;35.38;97577.40;;;;111037;1248;41141;-65
2022/09/08 09:04:45;;;;;;;6.20;2.40;;;;;35.00;97577.20;;;;111004;1248;42934;-64
2022/09/08 09:07:41;;;;;;;6.90;2.90;;;;;34.76;97563.20;;;;111094;1248;42424;-63
2022/09/08 09:10:10;;;;;;;7.60;2.90;;;;;34.30;97562.80;;;;111017;1248;41266;-63
2022/09/08 09:13:09;;;;;;;6.70;2.30;;;;;33.88;97561.20;;;;111135;1247;41610;-63
2022/09/08 09:15:54;;;;;;;6.00;2.80;;;;;34.50;97555.60;;;;111006;1247;42033;-63
2022/09/08 09:18:59;;;;;;;5.40;2.40;;;;;34.46;97548.80;;;;111013;1248;41948;-64
2022/09/08 09:21:53;;;;;;;7.10;2.70;;;;;34.46;97550.60;;;;111027;1247;41159;-63
2022/09/08 09:24:36;;;;;;;6.00;2.50;;;;;34.70;97555.00;;;;111045;1247;41192;-63
2022/09/08 09:27:35;;;;;;;5.40;2.30;;;;;35.20;97555.00;;;;111006;1249;41707;-63
2022/09/08 09:30:26;;;;;;;6.60;2.90;;;;;35.84;97549.80;;;;110868;1248;41860;-63
2022/09/08 09:33:14;;;;;;;7.10;2.50;;;;;35.68;97543.60;;;;110816;1249;41710;-63
2022/09/08 09:36:04;;;;;;;11.50;2.50;;;;;35.38;97546.20;;;;110980;1249;41291;-64
2022/09/08 09:38:38;;;;;;;5.20;2.20;;;;;36.06;97543.60;;;;111003;1248;41187;-64
2022/09/08 09:41:28;;;;;;;5.90;2.40;;;;;36.60;97543.60;;;;111016;1247;42379;-65
2022/09/08 09:44:01;;;;;;;;;;;;;37.30;97543.80;;;;111038;1247;41255;-64
2022/09/08 09:46:58;;;;;;;5.00;2.20;;;;;37.14;97538.60;;;;111038;1248;41631;-64
2022/09/08 09:49:30;;;;;;;6.80;2.80;;;;;37.32;97542.00;;;;111014;1248;42178;-64
2022/09/08 09:52:15;;;;;;;6.80;2.40;;;;;36.96;97539.60;;;;111048;1248;41145;-65
2022/09/08 09:55:03;;;;;;;6.60;2.70;;;;;36.90;97542.00;;;;110951;1250;41155;-64
2022/09/08 09:57:31;;;;;;;5.90;2.50;;;;;35.96;97534.20;;;;110817;1249;41146;-64
2022/09/08 10:00:25;;;;;;;5.60;2.40;;;;;36.34;97528.60;;;;110988;1250;41938;-64
2022/09/08 10:03:28;;;;;;;5.20;2.20;;;;;36.62;97533.60;;;;111174;1247;41189;-64
2022/09/08 10:06:02;;;;;;;6.00;2.70;;;;;36.30;97528.60;;;;111005;1250;41148;-64
2022/09/08 10:09:10;;;;;;;7.10;2.50;;;;;36.44;97530.00;;;;111086;1247;42382;-64
2022/09/08 10:11:55;;;;;;;6.50;2.80;;;;;36.24;97525.80;;;;111097;1248;42006;-64
2022/09/08 10:14:58;;;;;;;4.90;2.10;;;;;36.54;97529.40;;;;111015;1247;41619;-64
2022/09/08 10:17:58;;;;;;;5.30;2.40;;;;;36.76;97530.60;;;;111024;1249;41171;-64
2022/09/08 10:20:59;;;;;;;4.80;2.10;;;;;37.34;97533.40;;;;111034;1247;41598;-65
2022/09/08 10:23:54;;;;;;;5.20;2.40;;;;;37.78;97533.80;;;;110831;1247;42042;-65
2022/09/08 10:26:52;;;;;;;7.00;2.80;;;;;37.80;97537.60;;;;111033;1249;41243;-65
2022/09/08 10:29:39;;;;;;;6.70;2.50;;;;;36.68;97540.20;;;;110820;1249;41349;-65
2022/09/08 10:32:29;;;;;;;5.90;2.40;;;;;36.60;97544.00;;;;110995;1248;41666;-65
2022/09/08 10:35:36;;;;;;;6.40;2.50;;;;;36.84;97542.00;;;;111021;1247;41577;-64
2022/09/08 10:38:09;;;;;;;6.70;2.60;;;;;36.56;97538.40;;;;111023;1249;41153;-64
2022/09/08 10:40:54;;;;;;;5.60;2.40;;;;;36.44;97533.60;;;;111023;1247;41134;-64
2022/09/08 10:43:49;;;;;;;7.30;2.60;;;;;36.70;97532.60;;;;110998;1248;42355;-65
2022/09/08 10:46:36;;;;;;;7.10;2.80;;;;;37.16;97530.40;;;;111084;1248;41251;-65
2022/09/08 10:49:23;;;;;;;5.80;2.40;;;;;37.10;97530.40;;;;111083;1248;41632;-64
2022/09/08 10:52:13;;;;;;;7.00;2.60;;;;;37.20;97529.80;;;;111107;1247;42393;-65
2022/09/08 10:54:51;;;;;;;5.50;2.20;;;;;37.06;97528.80;;;;111055;1248;41269;-64
2022/09/08 10:57:57;;;;;;;5.70;2.40;;;;;37.08;97525.00;;;;111140;1247;41574;-64
2022/09/08 11:00:33;;;;;;;5.20;2.10;;;;;37.62;97520.40;;;;111124;1249;41295;-64
2022/09/08 11:03:14;;;;;;;7.00;2.40;;;;;38.20;97521.00;;;;111191;1247;41481;-65
2022/09/08 11:05:52;;;;;;;6.10;2.20;;;;;38.58;97520.60;;;;111125;1249;41132;-65
2022/09/08 11:08:49;;;;;;;5.60;2.10;;;;;38.50;97516.20;;;;111123;1247;41158;-65
2022/09/08 11:11:36;;;;;;;5.20;2.10;;;;;38.50;97512.00;;;;110751;1248;41242;-65
2022/09/08 11:14:36;;;;;;;6.80;2.70;;;;;38.40;97506.20;;;;111085;1249;41600;-64
2022/09/08 11:17:26;;;;;;;7.40;3.00;;;;;37.84;97496.80;;;;110860;1250;41491;-64
2022/09/08 11:20:07;;;;;;;8.60;2.60;;;;;36.86;97501.20;;;;111062;1247;41716;-64
2022/09/08 11:23:13;;;;;;;5.80;2.30;;;;;36.20;97497.00;;;;111093;1247;41169;-64
2022/09/08 11:26:07;;;;;;;6.40;2.70;;;;;36.32;97493.20;;;;110793;1248;41282;-64
2022/09/08 11:28:36;;;;;;;5.70;2.20;;;;;37.04;97491.20;;;;110767;1248;41172;-64
2022/09/08 11:31:33;;;;;;;9.60;2.50;;;;;37.24;97490.60;;;;111011;1248;41942;-65
2022/09/08 11:34:23;;;;;;;6.20;2.40;;;;;37.70;97487.40;;;;111100;1247;41612;-64
2022/09/08 11:37:36;;;;;;;4.50;2.10;;;;;38.46;97483.00;;;;111240;1248;40803;-64
2022/09/08 11:40:33;;;;;;;5.20;2.20;;;;;39.70;97480.20;;;;110423;1256;41281;-64
2022/09/08 11:43:15;;;;;;;6.80;2.60;;;;;39.50;97469.80;;;;110452;1257;41280;-66
2022/09/08 11:46:05;;;;;;;5.20;2.30;;;;;39.44;97469.00;;;;110725;1250;41159;-65
2022/09/08 11:48:53;;;;;;;6.40;2.40;;;;;39.92;97463.40;;;;111118;1247;42184;-65
2022/09/08 11:52:08;;;;;;;7.40;2.40;;;;;40.10;97460.60;;;;111056;1248;42308;-65
2022/09/08 11:55:19;;;;;;;6.70;2.90;;;;;40.68;97456.40;;;;111007;1247;41933;-65
2022/09/08 11:58:13;;;;;;;5.00;2.30;;;;;40.46;97454.00;;;;111070;1247;42123;-65
2022/09/08 12:01:01;;;;;;;5.50;2.40;;;;;40.64;97450.80;;;;110984;1248;41384;-65
2022/09/08 12:03:50;;;;;;;7.30;2.60;;;;;40.98;97450.60;;;;110848;1249;41451;-65
2022/09/08 12:06:37;;;;;;;5.40;2.20;;;;;40.96;97448.40;;;;111140;1247;41676;-65
2022/09/08 12:09:26;;;;;;;4.60;2.10;;;;;40.88;97451.00;;;;111049;1247;41200;-65
2022/09/08 12:12:29;;;;;;;6.60;2.40;;;;;41.38;97452.40;;;;111118;1248;41715;-65
2022/09/08 12:15:14;;;;;;;4.90;2.20;;;;;41.98;97445.00;;;;110911;1248;41639;-65
2022/09/08 12:18:04;;;;;;;4.30;2.00;;;;;42.16;97447.20;;;;111022;1247;41990;-65
2022/09/08 12:20:51;;;;;;;6.60;2.60;;;;;42.40;97450.40;;;;111075;1249;42405;-65
2022/09/08 12:23:40;;;;;;;5.40;2.20;;;;;42.16;97446.20;;;;111006;1248;41481;-65
2022/09/08 12:26:48;;;;;;;7.80;2.60;;;;;41.76;97444.20;;;;111028;1248;41174;-65
2022/09/08 12:29:19;;;;;;;5.50;2.30;;;;;41.94;97442.40;;;;109686;1248;1684991;-64
2022/09/08 12:32:20;;;;;;;5.80;2.50;;;;;41.30;97443.00;;;;111138;1247;41248;-64
2022/09/08 12:35:04;;;;;;;7.40;2.60;;;;;40.82;97441.60;;;;110996;1247;41208;-64
2022/09/08 12:37:57;;;;;;;6.50;2.30;;;;;40.88;97441.00;;;;111035;1247;41265;-64
2022/09/08 12:40:38;;;;;;;6.50;2.80;;;;;41.10;97439.20;;;;111122;1248;41146;-65
2022/09/08 12:43:16;;;;;;;6.20;2.80;;;;;39.70;97437.20;;;;111133;1248;41123;-64
2022/09/08 12:46:13;;;;;;;8.30;3.10;;;;;39.60;97439.00;;;;111050;1247;41709;-64
2022/09/08 12:48:57;;;;;;;6.20;2.70;;;;;39.80;97440.60;;;;111045;1248;41290;-64
2022/09/08 12:51:32;;;;;;;7.90;2.90;;;;;39.08;97442.60;;;;111054;1248;41158;-65
2022/09/08 12:54:18;;;;;;;5.80;2.50;;;;;38.94;97447.20;;;;111193;1247;41194;-65
2022/09/08 12:56:58;;;;;;;6.50;2.60;;;;;38.06;97455.80;;;;111067;1246;41162;-64
2022/09/08 12:59:48;;;;;;;4.80;2.30;;;;;38.32;97457.00;;;;111015;1248;41980;-64
2022/09/08 13:02:41;;;;;;;7.00;2.20;;;;;38.46;97455.40;;;;111047;1247;41200;-64
2022/09/08 13:05:43;;;;;;;5.60;2.40;;;;;38.98;97450.60;;;;111128;1247;42325;-64
2022/09/08 13:08:42;;;;;;;6.00;2.30;;;;;39.10;97447.00;;;;111047;1247;41253;-63
2022/09/08 13:11:16;;;;;;;5.50;2.50;;;;;38.96;97444.60;;;;110959;1248;41964;-64
2022/09/08 13:13:45;;;;;;;5.80;2.60;;;;;37.24;97446.80;;;;111172;1247;41158;-64
2022/09/08 13:16:21;;;;;;;6.80;2.30;;;;;36.72;97447.00;;;;111021;1249;41495;-65
2022/09/08 13:19:11;;;;;;;6.00;2.40;;;;;37.30;97447.60;;;;111001;1248;41264;-65
2022/09/08 13:21:40;;;;;;;6.50;2.80;;;;;37.62;97442.40;;;;111013;1249;41548;-65